createdAt,value
2023-02-07T00:01:31.737Z,4.40
2023-02-07T00:03:59.869Z,4.40
2023-02-07T00:06:31.928Z,4.40
2023-02-07T00:09:06.655Z,4.40
2023-02-07T00:11:35.476Z,4.40
2023-02-07T00:14:02.860Z,4.40
2023-02-07T00:16:30.065Z,4.40
2023-02-07T00:19:00.079Z,4.30
2023-02-07T00:21:29.015Z,4.40
2023-02-07T00:23:57.563Z,4.40
2023-02-07T00:26:27.403Z,4.30
2023-02-07T00:28:56.071Z,4.30
2023-02-07T00:31:31.712Z,4.30
2023-02-07T00:34:02.596Z,4.30
2023-02-07T00:36:32.789Z,4.30
2023-02-07T00:39:04.277Z,4.30
2023-02-07T00:41:32.172Z,4.30
2023-02-07T00:43:59.571Z,4.30
2023-02-07T00:46:26.894Z,4.20
2023-02-07T00:48:54.184Z,4.20
2023-02-07T00:51:21.658Z,4.20
2023-02-07T00:53:49.097Z,4.20
2023-02-07T00:56:16.970Z,4.10
2023-02-07T00:58:44.241Z,4.10
2023-02-07T01:01:11.637Z,4.10
2023-02-07T01:03:39.111Z,4.10
2023-02-07T01:06:07.342Z,4.00
2023-02-07T01:08:35.691Z,4.00
2023-02-07T01:11:07.767Z,4.00
2023-02-07T01:13:35.846Z,4.00
2023-02-07T01:16:03.397Z,3.90
2023-02-07T01:18:30.890Z,3.90
2023-02-07T01:20:58.073Z,3.90
2023-02-07T01:23:25.284Z,3.90
2023-02-07T01:25:52.406Z,3.80
2023-02-07T01:28:19.565Z,3.80
2023-02-07T01:30:48.086Z,3.80
2023-02-07T01:33:15.325Z,3.80
2023-02-07T01:35:46.716Z,3.80
2023-02-07T01:38:13.941Z,3.80
2023-02-07T01:40:41.024Z,3.80
2023-02-07T01:43:17.463Z,3.80
2023-02-07T01:45:44.700Z,3.80
2023-02-07T01:48:23.862Z,3.70
2023-02-07T01:50:55.263Z,3.70
2023-02-07T01:53:27.557Z,3.70
2023-02-07T01:55:59.422Z,3.60
2023-02-07T01:58:26.973Z,3.50
2023-02-07T02:00:55.413Z,3.50
2023-02-07T02:03:22.669Z,3.50
2023-02-07T02:05:54.388Z,3.40
2023-02-07T02:08:25.118Z,3.30
2023-02-07T02:11:34.686Z,3.30
2023-02-07T02:14:32.404Z,3.30
2023-02-07T02:17:22.288Z,3.20
2023-02-07T02:20:10.919Z,3.20
2023-02-07T02:23:09.118Z,3.20
2023-02-07T02:26:03.898Z,3.10
2023-02-07T02:29:15.874Z,3.10
2023-02-07T02:32:04.422Z,3.00
2023-02-07T02:34:55.899Z,3.00
2023-02-07T02:37:50.251Z,2.90
2023-02-07T02:40:57.431Z,2.80
2023-02-07T02:43:54.077Z,2.70
2023-02-07T02:46:28.821Z,2.60
2023-02-07T02:48:57.762Z,2.60
2023-02-07T02:51:24.950Z,2.50
2023-02-07T02:53:57.781Z,2.40
2023-02-07T02:57:25.428Z,2.40
2023-02-07T03:00:11.074Z,2.40
2023-02-07T03:03:23.868Z,2.30
2023-02-07T03:06:33.448Z,2.30
2023-02-07T03:09:17.561Z,2.30
2023-02-07T03:12:06.006Z,2.20
2023-02-07T03:14:45.009Z,2.20
2023-02-07T03:17:25.237Z,2.20
2023-02-07T03:20:04.165Z,2.10
2023-02-07T03:22:33.763Z,2.10
2023-02-07T03:25:04.196Z,2.10
2023-02-07T03:27:34.588Z,2.10
2023-02-07T03:30:07.922Z,2.10
2023-02-07T03:32:42.170Z,2.10
2023-02-07T03:35:48.849Z,2.00
2023-02-07T03:38:17.133Z,2.00
2023-02-07T03:40:58.464Z,2.10
2023-02-07T03:43:30.298Z,2.10
2023-02-07T03:45:58.249Z,2.00
2023-02-07T03:48:25.463Z,2.00
2023-02-07T03:50:53.183Z,2.00
2023-02-07T03:53:21.825Z,2.00
2023-02-07T03:55:49.046Z,1.90
2023-02-07T03:58:16.244Z,1.90
2023-02-07T04:00:43.420Z,1.90
2023-02-07T04:03:10.621Z,1.90
2023-02-07T04:05:38.224Z,1.90
2023-02-07T04:08:05.695Z,1.90
2023-02-07T04:10:35.242Z,1.80
2023-02-07T04:13:02.374Z,1.80
2023-02-07T04:15:29.866Z,1.80
2023-02-07T04:17:56.989Z,1.70
2023-02-07T04:20:24.058Z,1.70
2023-02-07T04:22:51.202Z,1.70
2023-02-07T04:25:18.790Z,1.70
2023-02-07T04:27:46.303Z,1.70
2023-02-07T04:30:33.486Z,1.70
2023-02-07T04:33:00.653Z,1.70
2023-02-07T04:35:27.765Z,1.70
2023-02-07T04:37:55.076Z,1.70
2023-02-07T04:40:22.429Z,1.70
2023-02-07T04:42:49.581Z,1.70
2023-02-07T04:45:16.737Z,1.80
2023-02-07T04:47:43.837Z,1.80
2023-02-07T04:50:11.342Z,1.80
2023-02-07T04:52:40.509Z,1.80
2023-02-07T04:55:09.385Z,1.80
2023-02-07T04:57:36.929Z,1.80
2023-02-07T05:00:05.176Z,1.80
2023-02-07T05:02:32.334Z,1.80
2023-02-07T05:04:59.490Z,1.80
2023-02-07T05:07:26.639Z,1.70
2023-02-07T05:09:54.013Z,1.70
2023-02-07T05:12:21.147Z,1.70
2023-02-07T05:14:48.343Z,1.60
2023-02-07T05:17:15.605Z,1.60
2023-02-07T05:19:42.806Z,1.60
2023-02-07T05:22:10.034Z,1.60
2023-02-07T05:24:37.240Z,1.60
2023-02-07T05:27:04.629Z,1.60
2023-02-07T05:29:31.830Z,1.60
2023-02-07T05:32:17.487Z,1.60
2023-02-07T05:34:44.654Z,1.60
2023-02-07T05:37:11.985Z,1.60
2023-02-07T05:39:39.281Z,1.60
2023-02-07T05:42:06.521Z,1.60
2023-02-07T05:44:33.756Z,1.60
2023-02-07T05:47:00.926Z,1.60
2023-02-07T05:49:30.589Z,1.60
2023-02-07T05:51:57.828Z,1.60
2023-02-07T05:54:25.033Z,1.60
2023-02-07T05:56:52.156Z,1.50
2023-02-07T05:59:19.564Z,1.60
2023-02-07T06:01:46.766Z,1.60
2023-02-07T06:04:13.960Z,1.60
2023-02-07T06:06:43.791Z,1.50
2023-02-07T06:09:11.181Z,1.60
2023-02-07T06:11:38.349Z,1.50
2023-02-07T06:14:05.555Z,1.60
2023-02-07T06:16:32.810Z,1.60
2023-02-07T06:19:00.902Z,1.60
2023-02-07T06:21:37.650Z,1.60
2023-02-07T06:24:12.666Z,1.50
2023-02-07T06:26:39.942Z,1.50
2023-02-07T06:29:10.319Z,1.50
2023-02-07T06:31:37.454Z,1.50
2023-02-07T06:34:04.732Z,1.50
2023-02-07T06:36:34.876Z,1.50
2023-02-07T06:39:04.944Z,1.40
2023-02-07T06:41:32.674Z,1.40
2023-02-07T06:43:59.951Z,1.40
2023-02-07T06:46:27.192Z,1.40
2023-02-07T06:48:54.385Z,1.40
2023-02-07T06:51:21.621Z,1.40
2023-02-07T06:53:48.892Z,1.40
2023-02-07T06:56:18.393Z,1.40
2023-02-07T06:58:45.900Z,1.30
2023-02-07T07:01:13.428Z,1.30
2023-02-07T07:03:40.634Z,1.30
2023-02-07T07:06:07.795Z,1.30
2023-02-07T07:08:35.041Z,1.30
2023-02-07T07:11:02.262Z,1.30
2023-02-07T07:13:29.413Z,1.30
2023-02-07T07:15:56.750Z,1.20
2023-02-07T07:18:24.020Z,1.20
2023-02-07T07:20:55.939Z,1.20
2023-02-07T07:23:23.683Z,1.20
2023-02-07T07:25:50.965Z,1.20
2023-02-07T07:28:18.168Z,1.20
2023-02-07T07:30:45.611Z,1.20
2023-02-07T07:33:12.943Z,1.20
2023-02-07T07:35:40.453Z,1.20
2023-02-07T07:38:08.555Z,1.20
2023-02-07T07:40:35.887Z,1.30
2023-02-07T07:43:03.476Z,1.30
2023-02-07T07:45:30.634Z,1.30
2023-02-07T07:47:57.889Z,1.30
2023-02-07T07:50:25.181Z,1.30
2023-02-07T07:52:52.484Z,1.30
2023-02-07T07:55:19.729Z,1.40
2023-02-07T07:57:46.896Z,1.40
2023-02-07T08:00:14.776Z,1.40
2023-02-07T08:02:44.032Z,1.40
2023-02-07T08:05:13.663Z,1.50
2023-02-07T08:07:41.307Z,1.50
2023-02-07T08:10:09.066Z,1.60
2023-02-07T08:12:36.435Z,1.60
2023-02-07T08:15:04.149Z,1.60
2023-02-07T08:17:31.324Z,1.70
2023-02-07T08:19:58.531Z,1.70
2023-02-07T08:22:25.873Z,1.70
2023-02-07T08:24:53.498Z,1.80
2023-02-07T08:27:20.900Z,1.80
2023-02-07T08:29:48.261Z,1.90
2023-02-07T08:32:15.626Z,1.90
2023-02-07T08:34:42.965Z,2.00
2023-02-07T08:37:10.735Z,2.00
2023-02-07T08:39:38.023Z,2.00
2023-02-07T08:42:08.357Z,2.10
2023-02-07T08:44:36.818Z,2.10
2023-02-07T08:47:04.716Z,2.20
2023-02-07T08:49:31.963Z,2.20
2023-02-07T08:51:59.215Z,2.30
2023-02-07T08:54:26.587Z,2.30
2023-02-07T08:56:53.760Z,2.40
2023-02-07T08:59:21.131Z,2.40
2023-02-07T09:01:48.293Z,2.50
2023-02-07T09:04:15.534Z,2.50
2023-02-07T09:06:42.857Z,2.60
2023-02-07T09:09:11.033Z,2.60
2023-02-07T09:11:38.629Z,2.70
2023-02-07T09:14:05.978Z,2.70
2023-02-07T09:16:33.272Z,2.80
2023-02-07T09:19:00.465Z,2.80
2023-02-07T09:21:27.697Z,2.90
2023-02-07T09:23:55.020Z,3.00
2023-02-07T09:26:26.733Z,3.00
2023-02-07T09:28:54.007Z,3.10
2023-02-07T09:31:22.112Z,3.10
2023-02-07T09:33:49.453Z,3.20
2023-02-07T09:36:22.494Z,3.20
2023-02-07T09:38:50.959Z,3.30
2023-02-07T09:41:53.673Z,3.30
2023-02-07T09:44:59.441Z,3.40
2023-02-07T09:47:27.225Z,3.40
2023-02-07T09:50:18.344Z,3.50
2023-02-07T09:52:55.788Z,3.50
2023-02-07T09:55:32.747Z,3.60
2023-02-07T09:58:16.763Z,3.60
2023-02-07T10:00:54.140Z,3.70
2023-02-07T10:03:24.621Z,3.70
2023-02-07T10:06:17.408Z,3.70
2023-02-07T10:08:55.255Z,3.80
2023-02-07T10:11:40.331Z,3.80
2023-02-07T10:14:28.789Z,3.90
2023-02-07T10:17:30.433Z,3.90
2023-02-07T10:20:06.509Z,4.00
2023-02-07T10:23:01.882Z,4.10
2023-02-07T10:26:11.331Z,4.10
2023-02-07T10:28:44.937Z,4.20
2023-02-07T10:31:19.315Z,4.30
2023-02-07T10:33:59.908Z,4.30
2023-02-07T10:36:29.854Z,4.40
2023-02-07T10:39:39.256Z,4.40
2023-02-07T10:42:15.096Z,4.60
2023-02-07T10:44:43.160Z,4.80
2023-02-07T10:47:18.620Z,5.00
2023-02-07T10:49:49.989Z,5.30
2023-02-07T10:52:39.334Z,5.60
2023-02-07T10:55:10.434Z,6.00
2023-02-07T10:57:38.891Z,6.30
2023-02-07T11:00:29.770Z,6.60
2023-02-07T11:03:20.909Z,6.90
2023-02-07T11:06:08.027Z,7.20
2023-02-07T11:08:38.310Z,7.50
2023-02-07T11:11:32.990Z,7.80
2023-02-07T11:14:08.213Z,8.00
2023-02-07T11:16:35.794Z,8.20
2023-02-07T11:19:07.150Z,8.50
2023-02-07T11:21:34.292Z,8.70
2023-02-07T11:24:17.880Z,8.90
2023-02-07T11:27:12.607Z,9.10
2023-02-07T11:29:58.488Z,9.30
2023-02-07T11:32:28.571Z,9.50
2023-02-07T11:35:01.770Z,9.70
2023-02-07T11:37:37.760Z,9.90
2023-02-07T11:40:20.123Z,10.00
2023-02-07T11:42:59.621Z,10.20
2023-02-07T11:45:29.309Z,10.30
2023-02-07T11:47:58.909Z,10.40
2023-02-07T11:50:43.945Z,10.50
2023-02-07T11:53:27.351Z,10.60
2023-02-07T11:55:56.890Z,10.80
2023-02-07T11:58:39.310Z,10.90
2023-02-07T12:01:08.854Z,11.00
2023-02-07T12:04:00.926Z,11.20
2023-02-07T12:06:40.742Z,11.20
2023-02-07T12:09:54.720Z,11.30
2023-02-07T12:12:46.974Z,11.30
2023-02-07T12:15:17.837Z,11.30
2023-02-07T12:18:35.819Z,11.40
2023-02-07T12:21:37.466Z,11.40
2023-02-07T12:24:43.591Z,11.50
2023-02-07T12:27:19.800Z,11.50
2023-02-07T12:30:32.420Z,11.60
2023-02-07T12:33:15.265Z,11.60
2023-02-07T12:36:26.713Z,11.70
2023-02-07T12:39:36.389Z,11.70
2023-02-07T12:42:22.890Z,11.80
2023-02-07T12:44:59.869Z,11.80
2023-02-07T12:47:54.737Z,11.80
2023-02-07T12:50:48.477Z,11.80
2023-02-07T12:53:39.282Z,11.80
2023-02-07T12:56:09.157Z,11.90
2023-02-07T12:59:17.268Z,11.90
2023-02-07T13:02:13.785Z,11.90
2023-02-07T13:05:22.389Z,11.90
2023-02-07T13:08:13.861Z,11.90
2023-02-07T13:11:00.904Z,11.90
2023-02-07T13:13:38.485Z,11.90
2023-02-07T13:16:08.369Z,11.80
2023-02-07T13:18:57.775Z,11.80
2023-02-07T13:21:46.517Z,11.80
2023-02-07T13:24:22.025Z,11.90
2023-02-07T13:27:00.944Z,12.00
2023-02-07T13:29:32.721Z,12.10
2023-02-07T13:32:05.726Z,12.30
2023-02-07T13:34:45.015Z,12.50
2023-02-07T13:37:17.443Z,12.70
2023-02-07T13:40:44.406Z,13.00
2023-02-07T13:44:09.000Z,13.30
2023-02-07T13:47:34.128Z,13.60
2023-02-07T13:50:42.020Z,13.90
2023-02-07T13:53:30.851Z,14.10
2023-02-07T13:56:08.559Z,14.20
2023-02-07T13:58:55.102Z,14.30
2023-02-07T14:01:54.572Z,14.40
2023-02-07T14:04:23.724Z,14.50
2023-02-07T14:06:53.900Z,14.60
2023-02-07T14:09:39.415Z,14.60
2023-02-07T14:12:25.698Z,14.70
2023-02-07T14:15:02.660Z,14.70
2023-02-07T14:18:45.470Z,14.70
2023-02-07T14:21:21.518Z,14.80
2023-02-07T14:24:05.283Z,15.00
2023-02-07T14:26:38.308Z,15.10
2023-02-07T14:29:20.708Z,15.10
2023-02-07T14:32:22.536Z,15.10
2023-02-07T14:35:21.612Z,15.20
2023-02-07T14:38:05.535Z,15.30
2023-02-07T14:40:44.477Z,15.30
2023-02-07T14:43:15.216Z,15.30
2023-02-07T14:46:18.107Z,15.30
2023-02-07T14:49:14.603Z,15.20
2023-02-07T14:51:55.457Z,15.20
2023-02-07T14:54:45.290Z,15.20
2023-02-07T14:57:33.947Z,15.20
2023-02-07T15:00:13.617Z,15.10
2023-02-07T15:02:52.036Z,15.00
2023-02-07T15:05:19.259Z,14.90
2023-02-07T15:07:48.948Z,14.80
2023-02-07T15:10:28.406Z,14.80
2023-02-07T15:12:57.133Z,14.70
2023-02-07T15:16:10.857Z,14.60
2023-02-07T15:18:50.300Z,14.50
2023-02-07T15:21:49.822Z,14.30
2023-02-07T15:24:56.394Z,14.10
2023-02-07T15:27:27.857Z,13.90
2023-02-07T15:30:05.488Z,13.60
2023-02-07T15:32:41.740Z,13.40
2023-02-07T15:35:36.756Z,13.10
2023-02-07T15:38:27.890Z,12.70
2023-02-07T15:40:56.021Z,12.30
2023-02-07T15:43:33.812Z,12.00
2023-02-07T15:46:11.759Z,11.70
2023-02-07T15:48:58.253Z,11.40
2023-02-07T15:51:33.920Z,11.00
2023-02-07T15:54:02.529Z,10.80
2023-02-07T15:56:31.193Z,10.50
2023-02-07T15:59:09.448Z,10.30
2023-02-07T16:01:39.387Z,10.10
2023-02-07T16:04:06.715Z,9.80
2023-02-07T16:06:34.015Z,9.70
2023-02-07T16:09:04.580Z,9.50
2023-02-07T16:11:31.610Z,9.30
2023-02-07T16:14:07.437Z,9.10
2023-02-07T16:16:46.990Z,9.00
2023-02-07T16:19:32.515Z,8.90
2023-02-07T16:22:12.690Z,8.70
2023-02-07T16:24:44.402Z,8.60
2023-02-07T16:27:30.618Z,8.50
2023-02-07T16:30:03.977Z,8.40
2023-02-07T16:32:34.058Z,8.30
2023-02-07T16:35:01.216Z,8.20
2023-02-07T16:37:29.096Z,8.10
2023-02-07T16:39:56.382Z,8.00
2023-02-07T16:42:23.822Z,7.90
2023-02-07T16:44:50.998Z,7.80
2023-02-07T16:47:18.630Z,7.70
2023-02-07T16:49:46.455Z,7.60
2023-02-07T16:52:14.018Z,7.50
2023-02-07T16:54:41.279Z,7.40
2023-02-07T16:57:11.874Z,7.30
2023-02-07T16:59:39.411Z,7.20
2023-02-07T17:02:16.366Z,7.10
2023-02-07T17:04:43.803Z,7.00
2023-02-07T17:07:12.553Z,6.90
2023-02-07T17:09:39.961Z,6.90
2023-02-07T17:12:07.567Z,6.70
2023-02-07T17:15:32.166Z,6.70
2023-02-07T17:18:00.452Z,6.50
2023-02-07T17:20:32.947Z,6.50
2023-02-07T17:23:01.107Z,6.30
2023-02-07T17:25:29.997Z,6.20
2023-02-07T17:27:58.539Z,6.10
2023-02-07T17:30:38.512Z,6.10
2023-02-07T17:33:07.136Z,5.90
2023-02-07T17:35:35.561Z,5.90
2023-02-07T17:38:03.446Z,5.70
2023-02-07T17:40:40.604Z,5.70
2023-02-07T17:43:09.650Z,5.60
2023-02-07T17:45:38.651Z,5.50
2023-02-07T17:48:06.229Z,5.40
2023-02-07T17:50:37.850Z,5.30
2023-02-07T17:53:05.465Z,5.20
2023-02-07T17:55:35.217Z,5.20
2023-02-07T17:58:06.068Z,5.10
2023-02-07T18:00:40.004Z,5.00
2023-02-07T18:03:08.708Z,4.90
2023-02-07T18:05:36.870Z,4.80
2023-02-07T18:08:04.628Z,4.80
2023-02-07T18:10:35.343Z,4.70
2023-02-07T18:13:03.023Z,4.60
2023-02-07T18:15:31.309Z,4.50
2023-02-07T18:17:59.429Z,4.40
2023-02-07T18:20:32.501Z,4.40
2023-02-07T18:23:01.144Z,4.30
2023-02-07T18:25:30.602Z,4.20
2023-02-07T18:27:59.471Z,4.20
2023-02-07T18:30:28.764Z,4.10
2023-02-07T18:32:56.094Z,4.00
2023-02-07T18:35:23.553Z,4.00
2023-02-07T18:37:50.781Z,3.90
2023-02-07T18:40:18.205Z,3.90
2023-02-07T18:42:45.733Z,3.80
2023-02-07T18:45:14.600Z,3.70
2023-02-07T18:47:43.121Z,3.70
2023-02-07T18:50:12.793Z,3.60
2023-02-07T18:52:40.311Z,3.60
2023-02-07T18:55:08.539Z,3.50
2023-02-07T18:57:35.922Z,3.50
2023-02-07T19:00:06.570Z,3.50
2023-02-07T19:02:33.880Z,3.40
2023-02-07T19:05:01.262Z,3.40
2023-02-07T19:07:28.592Z,3.40
2023-02-07T19:09:55.806Z,3.30
2023-02-07T19:12:23.418Z,3.30
2023-02-07T19:14:51.151Z,3.20
2023-02-07T19:17:20.261Z,3.20
2023-02-07T19:19:47.893Z,3.10
2023-02-07T19:22:17.874Z,3.10
2023-02-07T19:24:50.895Z,3.00
2023-02-07T19:27:18.169Z,3.00
2023-02-07T19:29:45.476Z,2.90
2023-02-07T19:32:12.697Z,2.90
2023-02-07T19:34:39.914Z,2.90
2023-02-07T19:37:07.170Z,2.80
2023-02-07T19:39:34.693Z,2.80
2023-02-07T19:42:01.960Z,2.70
2023-02-07T19:44:29.429Z,2.70
2023-02-07T19:46:56.932Z,2.70
2023-02-07T19:49:24.321Z,2.60
2023-02-07T19:51:52.060Z,2.60
2023-02-07T19:54:19.243Z,2.60
2023-02-07T19:56:46.549Z,2.60
2023-02-07T19:59:13.786Z,2.60
2023-02-07T20:02:00.137Z,2.60
2023-02-07T20:04:27.540Z,2.60
2023-02-07T20:06:54.932Z,2.60
2023-02-07T20:09:22.271Z,2.50
2023-02-07T20:11:49.758Z,2.50
2023-02-07T20:14:18.957Z,2.50
2023-02-07T20:16:49.403Z,2.50
2023-02-07T20:19:23.304Z,2.50
2023-02-07T20:21:54.167Z,2.40
2023-02-07T20:24:22.082Z,2.50
2023-02-07T20:26:49.551Z,2.40
2023-02-07T20:29:19.599Z,2.50
2023-02-07T20:31:49.849Z,2.50
2023-02-07T20:34:17.971Z,2.50
2023-02-07T20:37:04.042Z,2.50
2023-02-07T20:39:33.406Z,2.50
2023-02-07T20:42:01.091Z,2.50
2023-02-07T20:44:29.135Z,2.50
2023-02-07T20:46:59.587Z,2.50
2023-02-07T20:49:30.610Z,2.50
2023-02-07T20:52:01.608Z,2.50
2023-02-07T20:54:30.596Z,2.50
2023-02-07T20:56:58.634Z,2.50
2023-02-07T20:59:30.205Z,2.40
2023-02-07T21:01:57.585Z,2.40
2023-02-07T21:04:26.380Z,2.40
2023-02-07T21:06:54.491Z,2.30
2023-02-07T21:09:22.246Z,2.30
2023-02-07T21:11:52.651Z,2.30
2023-02-07T21:14:30.295Z,2.20
2023-02-07T21:17:01.684Z,2.20
2023-02-07T21:19:29.589Z,2.10
2023-02-07T21:21:56.849Z,2.10
2023-02-07T21:24:44.057Z,2.00
2023-02-07T21:27:11.970Z,2.00
2023-02-07T21:29:39.500Z,1.90
2023-02-07T21:32:06.814Z,1.90
2023-02-07T21:34:34.042Z,1.90
2023-02-07T21:37:01.368Z,1.90
2023-02-07T21:39:28.665Z,1.90
2023-02-07T21:41:55.916Z,1.90
2023-02-07T21:44:23.732Z,1.90
2023-02-07T21:46:52.383Z,1.90
2023-02-07T21:49:21.103Z,1.90
2023-02-07T21:51:49.990Z,1.90
2023-02-07T21:54:17.572Z,1.90
2023-02-07T21:56:45.593Z,1.90
2023-02-07T21:59:17.345Z,1.90
2023-02-07T22:01:46.332Z,1.90
2023-02-07T22:04:14.466Z,1.90
2023-02-07T22:06:43.883Z,1.90
2023-02-07T22:09:16.993Z,1.90
2023-02-07T22:11:45.030Z,1.90
2023-02-07T22:14:13.812Z,1.90
2023-02-07T22:16:41.312Z,1.90
2023-02-07T22:19:13.313Z,1.80
2023-02-07T22:21:40.759Z,1.80
2023-02-07T22:24:08.535Z,1.80
2023-02-07T22:26:35.984Z,1.80
2023-02-07T22:29:06.419Z,1.80
2023-02-07T22:31:38.311Z,1.70
2023-02-07T22:34:10.136Z,1.70
2023-02-07T22:36:40.688Z,1.60
2023-02-07T22:39:09.320Z,1.60
2023-02-07T22:41:37.579Z,1.60
2023-02-07T22:44:05.671Z,1.50
2023-02-07T22:46:32.956Z,1.40
2023-02-07T22:49:00.197Z,1.40
2023-02-07T22:51:32.744Z,1.40
2023-02-07T22:54:05.664Z,1.40
2023-02-07T22:56:36.598Z,1.30
2023-02-07T22:59:07.598Z,1.30
2023-02-07T23:01:39.430Z,1.30
2023-02-07T23:04:11.880Z,1.30
2023-02-07T23:06:39.638Z,1.20
2023-02-07T23:09:07.456Z,1.20
2023-02-07T23:11:39.683Z,1.20
2023-02-07T23:14:07.523Z,1.20
2023-02-07T23:16:36.500Z,1.20
2023-02-07T23:19:13.588Z,1.20
2023-02-07T23:21:40.996Z,1.10
2023-02-07T23:24:08.947Z,1.10
2023-02-07T23:26:36.861Z,1.10
2023-02-07T23:29:05.735Z,1.10
2023-02-07T23:31:34.196Z,1.20
2023-02-07T23:34:01.816Z,1.10
2023-02-07T23:36:49.886Z,1.10
2023-02-07T23:39:17.306Z,1.10
2023-02-07T23:41:44.711Z,1.10
2023-02-07T23:44:11.947Z,1.10
2023-02-07T23:46:39.776Z,1.10
2023-02-07T23:49:07.008Z,1.10
2023-02-07T23:51:34.442Z,1.10
2023-02-07T23:54:02.927Z,1.10
2023-02-07T23:56:30.231Z,1.10
2023-02-07T23:58:57.585Z,1.10
